createdAt,value
2023-01-03T00:02:20.129Z,95.80
2023-01-03T00:04:49.956Z,95.80
2023-01-03T00:07:34.742Z,95.70
2023-01-03T00:10:12.628Z,95.70
2023-01-03T00:12:41.712Z,95.70
2023-01-03T00:15:12.588Z,95.70
2023-01-03T00:17:41.721Z,95.70
2023-01-03T00:20:12.532Z,95.60
2023-01-03T00:22:41.907Z,95.70
2023-01-03T00:25:11.256Z,95.70
2023-01-03T00:27:40.357Z,95.70
2023-01-03T00:30:10.551Z,95.70
2023-01-03T00:32:39.694Z,95.70
2023-01-03T00:35:09.683Z,95.70
2023-01-03T00:37:38.898Z,95.80
2023-01-03T00:40:08.590Z,95.80
2023-01-03T00:42:57.977Z,95.80
2023-01-03T00:45:29.887Z,95.80
2023-01-03T00:48:01.519Z,95.80
2023-01-03T00:50:30.714Z,95.80
2023-01-03T00:52:59.920Z,95.70
2023-01-03T00:55:29.131Z,95.70
2023-01-03T00:57:58.316Z,95.70
2023-01-03T01:00:27.515Z,95.70
2023-01-03T01:02:56.960Z,95.70
2023-01-03T01:05:26.582Z,95.70
2023-01-03T01:07:55.815Z,95.70
2023-01-03T01:10:25.733Z,95.60
2023-01-03T01:12:58.084Z,95.70
2023-01-03T01:15:27.355Z,95.70
2023-01-03T01:17:56.552Z,95.60
2023-01-03T01:20:25.717Z,95.60
2023-01-03T01:22:55.052Z,95.50
2023-01-03T01:25:24.225Z,95.50
2023-01-03T01:27:53.512Z,95.80
2023-01-03T01:30:22.723Z,95.40
2023-01-03T01:32:51.968Z,95.30
2023-01-03T01:35:21.195Z,95.10
2023-01-03T01:37:52.064Z,95.10
2023-01-03T01:40:21.713Z,94.90
2023-01-03T01:43:09.585Z,94.70
2023-01-03T01:45:40.888Z,94.40
2023-01-03T01:48:15.749Z,94.30
2023-01-03T01:50:56.234Z,94.10
2023-01-03T01:53:34.797Z,94.00
2023-01-03T01:56:10.586Z,94.00
2023-01-03T01:58:43.095Z,93.90
2023-01-03T02:01:16.452Z,93.80
2023-01-03T02:03:52.842Z,93.70
2023-01-03T02:06:23.393Z,93.50
2023-01-03T02:08:52.944Z,93.50
2023-01-03T02:11:42.830Z,93.50
2023-01-03T02:14:50.484Z,93.40
2023-01-03T02:17:50.864Z,93.20
2023-01-03T02:21:18.271Z,93.00
2023-01-03T02:24:27.101Z,93.10
2023-01-03T02:27:30.686Z,92.90
2023-01-03T02:31:10.431Z,92.80
2023-01-03T02:34:42.068Z,92.80
2023-01-03T02:37:31.612Z,92.60
2023-01-03T02:40:30.612Z,92.60
2023-01-03T02:43:30.653Z,92.60
2023-01-03T02:46:23.725Z,92.30
2023-01-03T02:49:47.016Z,92.40
2023-01-03T02:52:24.018Z,92.10
2023-01-03T02:55:28.005Z,92.00
2023-01-03T02:58:13.248Z,91.80
2023-01-03T03:00:49.740Z,91.80
2023-01-03T03:03:28.069Z,91.70
2023-01-03T03:06:16.854Z,91.70
2023-01-03T03:08:48.500Z,91.60
2023-01-03T03:11:35.888Z,91.50
2023-01-03T03:14:27.367Z,91.50
2023-01-03T03:17:05.502Z,91.30
2023-01-03T03:19:58.666Z,91.10
2023-01-03T03:23:12.180Z,91.00
2023-01-03T03:25:56.009Z,91.00
2023-01-03T03:28:37.614Z,90.80
2023-01-03T03:31:40.595Z,90.60
2023-01-03T03:34:26.404Z,90.50
2023-01-03T03:37:39.425Z,90.70
2023-01-03T03:40:28.613Z,90.40
2023-01-03T03:43:18.069Z,90.20
2023-01-03T03:46:09.053Z,90.30
2023-01-03T03:49:08.489Z,90.20
2023-01-03T03:51:40.374Z,90.10
2023-01-03T03:54:18.386Z,90.10
2023-01-03T03:56:55.907Z,89.90
2023-01-03T03:59:29.053Z,89.50
2023-01-03T04:02:02.532Z,89.10
2023-01-03T04:04:39.086Z,88.80
2023-01-03T04:07:08.526Z,89.10
2023-01-03T04:09:37.624Z,89.00
2023-01-03T04:12:06.987Z,89.10
2023-01-03T04:14:36.152Z,88.70
2023-01-03T04:17:05.300Z,88.70
2023-01-03T04:19:34.393Z,88.30
2023-01-03T04:22:03.504Z,87.80
2023-01-03T04:24:32.641Z,88.20
2023-01-03T04:27:01.888Z,88.40
2023-01-03T04:29:34.116Z,87.40
2023-01-03T04:32:09.172Z,87.30
2023-01-03T04:34:38.302Z,87.70
2023-01-03T04:37:07.634Z,88.20
2023-01-03T04:39:36.929Z,88.00
2023-01-03T04:42:45.005Z,87.30
2023-01-03T04:45:14.190Z,86.90
2023-01-03T04:47:43.273Z,86.80
2023-01-03T04:50:12.406Z,86.30
2023-01-03T04:52:41.606Z,86.40
2023-01-03T04:55:11.273Z,86.30
2023-01-03T04:57:40.536Z,85.70
2023-01-03T05:00:10.855Z,85.80
2023-01-03T05:02:40.126Z,85.80
2023-01-03T05:05:10.817Z,85.30
2023-01-03T05:07:39.990Z,85.50
2023-01-03T05:10:09.567Z,85.50
2023-01-03T05:12:38.665Z,85.80
2023-01-03T05:15:08.677Z,84.80
2023-01-03T05:17:37.802Z,84.20
2023-01-03T05:20:26.121Z,84.10
2023-01-03T05:23:12.945Z,83.90
2023-01-03T05:25:51.544Z,84.50
2023-01-03T05:28:25.553Z,84.20
2023-01-03T05:30:54.868Z,84.10
2023-01-03T05:33:24.048Z,84.40
2023-01-03T05:35:53.344Z,84.20
2023-01-03T05:38:24.758Z,83.10
2023-01-03T05:40:54.107Z,82.90
2023-01-03T05:43:23.326Z,83.30
2023-01-03T05:45:54.319Z,82.80
2023-01-03T05:48:24.643Z,82.50
2023-01-03T05:50:54.122Z,82.30
2023-01-03T05:53:23.270Z,81.80
2023-01-03T05:55:55.203Z,81.70
2023-01-03T05:58:24.401Z,81.80
2023-01-03T06:00:53.593Z,81.40
2023-01-03T06:03:23.613Z,81.70
2023-01-03T06:05:52.757Z,82.10
2023-01-03T06:08:21.976Z,81.80
2023-01-03T06:10:53.767Z,81.80
2023-01-03T06:13:24.764Z,81.40
2023-01-03T06:16:12.012Z,81.00
2023-01-03T06:18:41.282Z,80.70
2023-01-03T06:21:10.440Z,80.40
2023-01-03T06:23:39.638Z,80.00
2023-01-03T06:26:08.855Z,80.40
2023-01-03T06:28:38.434Z,80.80
2023-01-03T06:31:07.892Z,80.70
2023-01-03T06:33:37.982Z,79.90
2023-01-03T06:36:11.072Z,79.80
2023-01-03T06:38:41.088Z,79.60
2023-01-03T06:41:10.612Z,79.60
2023-01-03T06:43:39.768Z,78.90
2023-01-03T06:46:27.650Z,79.10
2023-01-03T06:49:15.243Z,79.50
2023-01-03T06:52:03.282Z,79.20
2023-01-03T06:54:36.995Z,78.50
2023-01-03T06:57:07.609Z,78.90
2023-01-03T06:59:36.693Z,78.40
2023-01-03T07:02:09.951Z,78.40
2023-01-03T07:04:39.141Z,78.50
2023-01-03T07:07:08.377Z,78.30
2023-01-03T07:09:38.533Z,78.20
2023-01-03T07:12:26.002Z,77.90
2023-01-03T07:14:55.113Z,77.10
2023-01-03T07:17:24.212Z,77.30
2023-01-03T07:19:53.342Z,77.80
2023-01-03T07:22:22.441Z,78.10
2023-01-03T07:24:51.694Z,77.70
2023-01-03T07:27:21.104Z,77.50
2023-01-03T07:29:50.317Z,77.60
2023-01-03T07:32:19.444Z,77.30
2023-01-03T07:34:48.546Z,77.30
2023-01-03T07:37:17.730Z,77.90
2023-01-03T07:39:46.842Z,78.00
2023-01-03T07:42:34.380Z,78.50
2023-01-03T07:45:03.611Z,78.20
2023-01-03T07:47:32.962Z,78.50
2023-01-03T07:50:02.141Z,77.60
2023-01-03T07:52:31.260Z,77.90
2023-01-03T07:55:00.426Z,77.60
2023-01-03T07:57:30.274Z,77.70
2023-01-03T07:59:59.382Z,77.60
2023-01-03T08:02:28.663Z,77.50
2023-01-03T08:04:57.890Z,77.70
2023-01-03T08:07:27.093Z,77.60
2023-01-03T08:10:14.414Z,77.80
2023-01-03T08:13:04.500Z,78.10
2023-01-03T08:15:33.816Z,77.80
2023-01-03T08:18:03.118Z,78.20
2023-01-03T08:20:32.229Z,78.20
2023-01-03T08:23:02.103Z,78.40
2023-01-03T08:25:32.236Z,78.60
2023-01-03T08:28:03.016Z,78.50
2023-01-03T08:30:32.504Z,78.50
2023-01-03T08:33:05.308Z,78.10
2023-01-03T08:35:40.864Z,78.60
2023-01-03T08:38:19.197Z,78.30
2023-01-03T08:40:48.939Z,78.60
2023-01-03T08:43:19.052Z,79.80
2023-01-03T08:45:50.355Z,78.50
2023-01-03T08:48:24.369Z,78.70
2023-01-03T08:50:53.933Z,79.10
2023-01-03T08:53:25.280Z,78.90
2023-01-03T08:55:54.487Z,79.20
2023-01-03T08:58:23.947Z,79.70
2023-01-03T09:00:53.120Z,79.40
2023-01-03T09:03:22.491Z,79.50
2023-01-03T09:05:51.823Z,79.20
2023-01-03T09:08:21.015Z,79.50
2023-01-03T09:10:50.205Z,79.50
2023-01-03T09:13:19.377Z,79.50
2023-01-03T09:15:48.534Z,79.50
2023-01-03T09:18:18.032Z,79.70
2023-01-03T09:20:52.211Z,80.00
2023-01-03T09:23:21.602Z,80.00
2023-01-03T09:25:51.241Z,80.00
2023-01-03T09:28:20.477Z,80.00
2023-01-03T09:30:49.941Z,80.10
2023-01-03T09:33:19.269Z,80.40
2023-01-03T09:35:48.567Z,80.40
2023-01-03T09:38:17.761Z,80.40
2023-01-03T09:40:48.693Z,80.50
2023-01-03T09:43:25.614Z,80.60
2023-01-03T09:46:02.979Z,80.30
2023-01-03T09:48:38.565Z,80.50
2023-01-03T09:51:35.148Z,80.60
2023-01-03T09:54:22.945Z,80.80
2023-01-03T09:57:10.338Z,81.10
2023-01-03T09:59:57.546Z,81.00
2023-01-03T10:03:24.626Z,81.80
2023-01-03T10:06:36.284Z,81.40
2023-01-03T10:09:34.344Z,81.60
2023-01-03T10:12:27.225Z,81.80
2023-01-03T10:15:39.404Z,81.80
2023-01-03T10:18:48.885Z,82.10
2023-01-03T10:21:30.355Z,82.10
2023-01-03T10:24:00.725Z,82.20
2023-01-03T10:26:35.369Z,82.30
2023-01-03T10:29:04.535Z,82.50
2023-01-03T10:32:08.787Z,82.60
2023-01-03T10:34:40.394Z,82.80
2023-01-03T10:37:20.366Z,83.00
2023-01-03T10:39:49.601Z,83.00
2023-01-03T10:42:20.574Z,83.10
2023-01-03T10:45:08.217Z,83.20
2023-01-03T10:47:37.477Z,83.30
2023-01-03T10:50:08.575Z,83.50
2023-01-03T10:52:44.116Z,83.60
2023-01-03T10:55:20.176Z,83.90
2023-01-03T10:58:02.440Z,84.10
2023-01-03T11:00:40.080Z,84.30
2023-01-03T11:03:20.312Z,84.40
2023-01-03T11:06:03.576Z,84.60
2023-01-03T11:08:50.315Z,84.70
2023-01-03T11:11:38.093Z,84.80
2023-01-03T11:14:29.193Z,84.90
2023-01-03T11:17:07.237Z,85.00
2023-01-03T11:19:36.796Z,85.20
2023-01-03T11:22:39.491Z,85.10
2023-01-03T11:26:03.279Z,85.20
2023-01-03T11:28:53.521Z,85.40
2023-01-03T11:32:04.632Z,85.50
2023-01-03T11:35:22.950Z,85.70
2023-01-03T11:38:21.308Z,85.80
2023-01-03T11:41:23.675Z,86.00
2023-01-03T11:44:52.839Z,86.10
2023-01-03T11:47:43.222Z,86.30
2023-01-03T11:50:37.745Z,86.50
2023-01-03T11:53:38.229Z,86.40
2023-01-03T11:56:32.228Z,86.50
2023-01-03T11:59:28.553Z,86.70
2023-01-03T12:02:49.518Z,86.80
2023-01-03T12:05:47.627Z,86.70
2023-01-03T12:08:39.737Z,86.90
2023-01-03T12:11:36.406Z,86.90
2023-01-03T12:14:26.685Z,87.20
2023-01-03T12:17:12.396Z,87.40
2023-01-03T12:19:56.848Z,87.30
2023-01-03T12:22:37.437Z,87.40
2023-01-03T12:25:31.078Z,87.60
2023-01-03T12:28:13.006Z,87.60
2023-01-03T12:31:09.078Z,87.60
2023-01-03T12:34:15.456Z,88.50
2023-01-03T12:37:15.892Z,87.80
2023-01-03T12:40:03.011Z,87.80
2023-01-03T12:42:38.271Z,87.90
2023-01-03T12:45:13.689Z,88.60
2023-01-03T12:47:52.759Z,88.10
2023-01-03T12:50:48.597Z,88.10
2023-01-03T12:53:49.007Z,88.80
2023-01-03T12:56:48.995Z,88.10
2023-01-03T13:00:08.787Z,88.20
2023-01-03T13:02:44.549Z,88.20
2023-01-03T13:05:50.472Z,88.40
2023-01-03T13:08:53.181Z,88.50
2023-01-03T13:11:42.455Z,88.40
2023-01-03T13:14:31.225Z,88.60
2023-01-03T13:17:30.626Z,88.70
2023-01-03T13:20:37.466Z,88.80
2023-01-03T13:23:36.287Z,89.00
2023-01-03T13:26:17.318Z,89.20
2023-01-03T13:28:47.871Z,89.40
2023-01-03T13:31:20.096Z,89.60
2023-01-03T13:34:11.627Z,89.70
2023-01-03T13:37:19.947Z,90.00
2023-01-03T13:40:03.749Z,90.00
2023-01-03T13:42:39.746Z,90.00
2023-01-03T13:45:20.473Z,90.10
2023-01-03T13:47:55.397Z,90.20
2023-01-03T13:50:36.776Z,90.30
2023-01-03T13:53:28.721Z,90.40
2023-01-03T13:56:22.551Z,90.40
2023-01-03T13:59:27.890Z,90.70
2023-01-03T14:02:09.900Z,90.80
2023-01-03T14:05:34.172Z,90.90
